Time;durP1;ratioP1;P1;durP2;ratioP2;P2;SDS_P1;SDS_P2;PMS_P1;PMS_P2;Temp;Humidity;BMP_temperature;BMP_pressure;BME280_temperature;BME280_humidity;BME280_pressure;Samples;Min_cycle;Max_cycle;Signal;HPM_P1;HPM_P2
2024/03/23 00:00:00;;;;;;;0.68;0.68;;;;;;;27.10;25.72;99464.94;7395451;19;20025;-54
2024/03/23 00:02:27;;;;;;;0.40;0.40;;;;;;;27.26;25.76;99466.19;7397493;19;20348;-53
2024/03/23 00:04:55;;;;;;;0.60;0.60;;;;;;;26.99;25.31;99460.59;7398595;19;20037;-53
2024/03/23 00:07:22;;;;;;;4.03;0.50;;;;;;;26.95;25.83;99460.28;7397818;19;20014;-53
2024/03/23 00:09:50;;;;;;;0.35;0.30;;;;;;;26.78;25.75;99451.06;7396919;19;20029;-53
2024/03/23 00:12:17;;;;;;;1.38;1.10;;;;;;;26.74;25.61;99457.25;7398164;19;20098;-53
2024/03/23 00:14:44;;;;;;;0.95;0.95;;;;;;;26.76;25.73;99457.41;7397651;19;20041;-53
2024/03/23 00:17:11;;;;;;;8.75;1.52;;;;;;;26.72;25.66;99462.78;7397294;19;20014;-53
2024/03/23 00:19:38;;;;;;;2.80;1.17;;;;;;;26.64;25.26;99452.81;7393396;19;20011;-53
2024/03/23 00:22:05;;;;;;;8.98;1.77;;;;;;;26.65;25.24;99457.19;7396799;19;20415;-53
2024/03/23 00:24:33;;;;;;;0.57;0.57;;;;;;;26.61;25.74;99454.78;7397357;19;20015;-53
2024/03/23 00:27:00;;;;;;;2.65;1.80;;;;;;;26.66;25.71;99453.72;7395791;19;20138;-53
2024/03/23 00:29:27;;;;;;;3.13;1.17;;;;;;;26.78;25.40;99446.13;7397235;19;20029;-53
2024/03/23 00:31:55;;;;;;;1.77;1.27;;;;;;;26.88;25.59;99464.03;7396744;19;20023;-53
2024/03/23 00:34:22;;;;;;;1.42;1.33;;;;;;;26.82;25.80;99452.13;7395762;19;20011;-53
2024/03/23 00:36:49;;;;;;;1.02;0.93;;;;;;;26.85;25.65;99442.38;7397902;19;20088;-53
2024/03/23 00:39:17;;;;;;;0.68;0.68;;;;;;;26.83;25.71;99433.63;7396475;19;20014;-54
2024/03/23 00:41:44;;;;;;;0.85;0.85;;;;;;;26.63;25.76;99440.63;7396686;19;20070;-53
2024/03/23 00:44:11;;;;;;;8.82;1.13;;;;;;;26.80;25.58;99431.22;7397107;19;20074;-53
2024/03/23 00:46:39;;;;;;;0.47;0.47;;;;;;;26.10;25.90;99441.50;7394936;19;20070;-53
2024/03/23 00:49:06;;;;;;;8.50;0.70;;;;;;;26.74;25.60;99434.38;7395427;19;20006;-53
2024/03/23 00:51:33;;;;;;;7.57;0.77;;;;;;;26.70;25.98;99439.75;7393933;19;20482;-54
2024/03/23 00:54:00;;;;;;;0.70;0.65;;;;;;;26.93;25.63;99428.69;7396578;19;20022;-53
2024/03/23 00:56:26;;;;;;;4.22;1.00;;;;;;;26.88;25.45;99432.59;7400196;19;20018;-53
2024/03/23 00:58:52;;;;;;;0.30;0.30;;;;;;;26.70;25.40;99431.19;7396204;19;20010;-53
2024/03/23 01:01:18;;;;;;;0.40;0.40;;;;;;;26.71;25.78;99429.81;7395274;19;20010;-53
2024/03/23 01:03:44;;;;;;;0.57;0.57;;;;;;;27.00;25.11;99427.81;7394031;19;20007;-52
2024/03/23 01:06:10;;;;;;;0.32;0.32;;;;;;;26.69;25.32;99426.81;7394896;19;20034;-53
2024/03/23 01:08:36;;;;;;;2.38;1.10;;;;;;;26.58;25.75;99415.19;7394465;19;20349;-53
2024/03/23 01:11:03;;;;;;;6.22;1.02;;;;;;;26.61;25.40;99426.19;7393825;19;20049;-53
2024/03/23 01:13:29;;;;;;;0.50;0.50;;;;;;;26.56;25.40;99435.03;7399957;19;20045;-53
2024/03/23 01:15:56;;;;;;;0.45;0.45;;;;;;;26.46;25.35;99426.47;7395660;19;20450;-54
2024/03/23 01:18:23;;;;;;;0.35;0.35;;;;;;;26.47;25.49;99427.19;7395354;19;20417;-53
2024/03/23 01:20:49;;;;;;;1.20;0.80;;;;;;;26.32;25.59;99422.50;7393415;19;20022;-53
2024/03/23 01:23:16;;;;;;;5.72;1.15;;;;;;;26.18;25.73;99419.28;7394895;19;20455;-53
2024/03/23 01:25:42;;;;;;;0.35;0.35;;;;;;;26.26;25.84;99416.31;7394542;19;20355;-53
2024/03/23 01:28:08;;;;;;;0.40;0.40;;;;;;;26.82;25.57;99429.28;7393907;19;20014;-53
2024/03/23 01:30:34;;;;;;;0.32;0.32;;;;;;;27.20;24.96;99419.22;7398927;19;20471;-53
2024/03/23 01:33:02;;;;;;;2.00;1.00;;;;;;;26.90;25.31;99412.72;7394119;19;20017;-53
2024/03/23 01:35:29;;;;;;;0.20;0.20;;;;;;;26.54;25.96;99409.94;7398438;19;20070;-53
2024/03/23 01:37:55;;;;;;;1.05;0.95;;;;;;;26.57;25.75;99402.28;7395320;19;20007;-53
2024/03/23 01:40:21;;;;;;;1.13;0.35;;;;;;;26.54;25.40;99398.53;7393168;19;20019;-53
2024/03/23 01:42:57;;;;;;;0.40;0.40;;;;;;;26.48;25.62;99400.91;7397887;19;20035;-53
2024/03/23 01:45:24;;;;;;;0.30;0.30;;;;;;;26.48;25.40;99398.06;7396425;19;20022;-53
2024/03/23 01:47:52;;;;;;;1.40;0.60;;;;;;;27.41;24.61;99394.41;7394691;19;20015;-53
2024/03/23 01:50:20;;;;;;;2.65;0.82;;;;;;;26.57;25.39;99397.34;7395027;19;20015;-53
2024/03/23 01:52:47;;;;;;;1.15;0.77;;;;;;;26.44;25.23;99392.03;7395316;19;20014;-53
2024/03/23 01:55:13;;;;;;;0.60;0.60;;;;;;;26.40;25.63;99388.84;7394701;19;20006;-52
2024/03/23 01:57:39;;;;;;;0.40;0.40;;;;;;;26.45;25.80;99393.53;7396465;19;20367;-53
2024/03/23 02:00:06;;;;;;;6.80;1.20;;;;;;;26.49;25.55;99396.69;7391764;19;20328;-53
2024/03/23 02:02:43;;;;;;;0.50;0.50;;;;;;;26.47;25.61;99387.97;7392683;19;20027;-53
2024/03/23 02:05:10;;;;;;;0.68;0.45;;;;;;;26.36;25.65;99382.84;7391654;19;20018;-52
2024/03/23 02:07:38;;;;;;;0.85;0.70;;;;;;;26.42;25.32;99391.88;7395047;19;20357;-53
2024/03/23 02:10:06;;;;;;;0.50;0.50;;;;;;;26.24;25.71;99379.06;7394106;19;20010;-53
2024/03/23 02:12:33;;;;;;;11.55;1.92;;;;;;;26.26;25.49;99379.22;7396908;19;20018;-53
2024/03/23 02:14:59;;;;;;;6.32;0.93;;;;;;;26.37;25.52;99372.94;7391741;19;20521;-53
2024/03/23 02:17:25;;;;;;;12.23;0.82;;;;;;;26.34;25.55;99368.41;7390275;19;20006;-53
2024/03/23 02:19:51;;;;;;;1.20;1.08;;;;;;;26.29;25.21;99372.31;7394133;19;20017;-53
2024/03/23 02:22:17;;;;;;;0.40;0.40;;;;;;;26.25;25.12;99363.41;7391678;19;20036;-53
2024/03/23 02:24:43;;;;;;;0.20;0.20;;;;;;;26.90;24.98;99355.56;7390907;19;20376;-53
2024/03/23 02:27:09;;;;;;;2.92;0.88;;;;;;;26.26;25.36;99362.06;7393127;19;20029;-53
2024/03/23 02:29:36;;;;;;;0.50;0.50;;;;;;;26.48;24.85;99355.22;7393114;19;20010;-53
2024/03/23 02:32:02;;;;;;;4.18;0.55;;;;;;;26.58;25.15;99358.84;7392339;19;20027;-53
2024/03/23 02:34:28;;;;;;;7.13;0.90;;;;;;;26.62;25.06;99353.41;7393528;19;20014;-53
2024/03/23 02:36:54;;;;;;;0.15;0.15;;;;;;;26.48;25.28;99358.06;7393340;19;20011;-53
2024/03/23 02:39:20;;;;;;;1.08;0.52;;;;;;;26.40;25.48;99348.88;7392340;19;20011;-52
2024/03/23 02:41:47;;;;;;;0.80;0.57;;;;;;;26.34;25.58;99345.56;7394384;19;20611;-53
2024/03/23 02:44:14;;;;;;;13.60;0.82;;;;;;;26.41;24.99;99341.81;7392687;19;20018;-52
2024/03/23 02:46:40;;;;;;;0.45;0.45;;;;;;;26.39;24.98;99347.38;7391236;19;20014;-53
2024/03/23 02:49:07;;;;;;;1.98;0.88;;;;;;;26.41;25.48;99343.91;7393092;19;20014;-53
2024/03/23 02:51:33;;;;;;;0.47;0.45;;;;;;;26.03;25.12;99322.44;7397596;19;20041;-53
2024/03/23 02:53:59;;;;;;;2.75;0.63;;;;;;;25.92;25.15;99339.41;7392702;19;20090;-53
2024/03/23 02:56:25;;;;;;;0.52;0.52;;;;;;;25.87;25.69;99337.56;7397336;19;20035;-53
2024/03/23 02:58:51;;;;;;;0.50;0.35;;;;;;;25.45;26.18;99332.09;7393588;19;20473;-53
2024/03/23 03:01:17;;;;;;;0.60;0.60;;;;;;;25.60;25.85;99331.16;7392810;19;20014;-54
2024/03/23 03:03:44;;;;;;;0.38;0.38;;;;;;;25.47;25.71;99335.13;7392127;19;20011;-53
2024/03/23 03:06:10;;;;;;;0.30;0.30;;;;;;;25.46;26.03;99317.28;7392849;19;20006;-53
2024/03/23 03:08:36;;;;;;;0.55;0.55;;;;;;;25.36;25.95;99307.16;7391252;19;20465;-53
2024/03/23 03:11:02;;;;;;;1.10;1.00;;;;;;;25.34;25.57;99301.25;7394049;19;20395;-53
2024/03/23 03:13:28;;;;;;;1.77;0.55;;;;;;;25.22;26.07;99309.59;7392301;19;20029;-53
2024/03/23 03:15:54;;;;;;;2.75;1.83;;;;;;;25.31;25.75;99311.75;7392051;19;20018;-53
2024/03/23 03:18:21;;;;;;;5.80;0.40;;;;;;;25.36;25.95;99307.88;7392140;19;20023;-53
2024/03/23 03:20:47;;;;;;;0.40;0.40;;;;;;;25.39;25.90;99312.41;7389453;19;20007;-53
2024/03/23 03:23:13;;;;;;;5.53;0.82;;;;;;;25.33;25.88;99302.63;7391488;19;20083;-53
2024/03/23 03:25:39;;;;;;;3.25;1.90;;;;;;;25.24;26.15;99306.91;7392706;19;20014;-52
2024/03/23 03:28:05;;;;;;;0.88;0.82;;;;;;;25.24;26.37;99312.63;7399596;19;20026;-52
2024/03/23 03:30:31;;;;;;;0.40;0.40;;;;;;;25.39;26.21;99311.66;7399065;19;20070;-52
2024/03/23 03:32:58;;;;;;;0.30;0.30;;;;;;;25.54;26.16;99306.50;7402368;19;20090;-52
2024/03/23 03:35:24;;;;;;;5.25;0.82;;;;;;;26.22;25.62;99304.66;7399047;19;20014;-51
2024/03/23 03:37:50;;;;;;;0.32;0.32;;;;;;;26.54;25.15;99301.41;7396828;19;20022;-52
2024/03/23 03:40:16;;;;;;;1.13;1.13;;;;;;;26.45;25.63;99299.28;7396882;19;20006;-53
2024/03/23 03:42:42;;;;;;;0.70;0.70;;;;;;;26.07;25.76;99294.25;7402317;19;20023;-53
2024/03/23 03:45:08;;;;;;;2.15;0.60;;;;;;;25.54;26.29;99291.50;7399288;19;20014;-52
2024/03/23 03:47:34;;;;;;;0.70;0.70;;;;;;;25.47;26.09;99290.25;7398401;19;20010;-53
2024/03/23 03:50:00;;;;;;;0.40;0.40;;;;;;;25.44;26.03;99293.56;7396213;19;20333;-52
2024/03/23 03:52:26;;;;;;;4.78;1.55;;;;;;;25.46;26.39;99297.31;7397931;19;20045;-52
2024/03/23 03:55:02;;;;;;;0.43;0.43;;;;;;;25.75;25.82;99296.69;7399768;19;20023;-53
2024/03/23 03:57:28;;;;;;;0.28;0.28;;;;;;;25.72;26.14;99286.47;7398039;19;20014;-53
2024/03/23 03:59:54;;;;;;;0.63;0.63;;;;;;;25.72;26.34;99304.34;7396400;19;20014;-52
2024/03/23 04:02:20;;;;;;;0.38;0.38;;;;;;;25.71;26.28;99296.38;7398801;19;20014;-52
2024/03/23 04:04:47;;;;;;;0.20;0.20;;;;;;;25.80;26.48;99292.78;7397639;19;20014;-53
2024/03/23 04:07:13;;;;;;;2.05;0.52;;;;;;;25.74;26.05;99290.22;7400306;19;20006;-52
2024/03/23 04:09:39;;;;;;;0.30;0.30;;;;;;;25.87;25.99;99292.69;7397261;19;20038;-52
2024/03/23 04:12:06;;;;;;;5.25;0.88;;;;;;;25.86;25.95;99276.16;7399997;19;20015;-53
2024/03/23 04:14:32;;;;;;;3.13;0.50;;;;;;;25.97;26.09;99289.84;7397289;19;20459;-53
2024/03/23 04:16:59;;;;;;;0.50;0.50;;;;;;;26.00;26.42;99288.66;7398693;19;20007;-53
2024/03/23 04:19:25;;;;;;;0.40;0.25;;;;;;;26.11;26.42;99282.41;7396303;19;20490;-53
2024/03/23 04:21:51;;;;;;;0.30;0.30;;;;;;;26.52;25.46;99274.78;7396719;19;20015;-54
2024/03/23 04:24:19;;;;;;;0.50;0.50;;;;;;;26.79;25.54;99270.44;7397283;19;20066;-54
2024/03/23 04:26:45;;;;;;;0.30;0.30;;;;;;;26.14;26.17;99269.81;7396644;19;20034;-52
2024/03/23 04:29:12;;;;;;;0.40;0.40;;;;;;;26.11;26.21;99266.03;7400839;19;20015;-52
2024/03/23 04:31:38;;;;;;;7.43;1.90;;;;;;;26.01;26.24;99270.19;7396904;19;20021;-52
2024/03/23 04:34:04;;;;;;;6.05;1.08;;;;;;;26.08;26.43;99275.00;7397070;19;20051;-52
2024/03/23 04:36:30;;;;;;;0.80;0.80;;;;;;;26.02;26.29;99268.84;7395947;19;20010;-52
2024/03/23 04:38:58;;;;;;;19.95;1.38;;;;;;;25.96;25.99;99265.53;7396880;19;20015;-53
2024/03/23 04:41:25;;;;;;;0.10;0.10;;;;;;;26.00;26.14;99268.69;7396474;19;20022;-53
2024/03/23 04:43:52;;;;;;;0.10;0.10;;;;;;;26.15;26.22;99259.88;7396360;19;20015;-53
2024/03/23 04:46:18;;;;;;;1.20;0.50;;;;;;;26.19;25.79;99266.66;7396502;19;20018;-53
2024/03/23 04:48:44;;;;;;;0.80;0.80;;;;;;;26.02;25.90;99263.88;7399268;19;20069;-53
2024/03/23 04:51:12;;;;;;;0.70;0.70;;;;;;;25.90;25.89;99267.91;7394805;19;20017;-53
2024/03/23 04:53:38;;;;;;;11.25;1.40;;;;;;;25.84;25.90;99258.88;7396545;19;20072;-53
2024/03/23 04:56:04;;;;;;;0.22;0.22;;;;;;;25.72;26.24;99255.09;7398154;19;20017;-52
2024/03/23 04:58:30;;;;;;;0.70;0.70;;;;;;;26.37;25.71;99253.00;7397736;19;20018;-53
2024/03/23 05:00:57;;;;;;;0.20;0.20;;;;;;;26.44;25.58;99240.69;7394893;19;20022;-53
2024/03/23 05:03:23;;;;;;;1.17;0.50;;;;;;;26.19;25.79;99243.06;7395798;19;20349;-53
2024/03/23 05:05:50;;;;;;;0.95;0.52;;;;;;;25.73;26.21;99242.34;7393984;19;20014;-53
2024/03/23 05:08:16;;;;;;;0.10;0.10;;;;;;;25.62;26.10;99242.91;7395519;19;20014;-53
2024/03/23 05:10:43;;;;;;;0.47;0.47;;;;;;;25.74;25.95;99238.13;7395979;19;20477;-53
2024/03/23 05:13:10;;;;;;;0.20;0.20;;;;;;;25.58;26.28;99234.03;7400266;19;20002;-53
2024/03/23 05:15:36;;;;;;;2.22;1.05;;;;;;;25.62;26.55;99234.34;7395752;19;20013;-53
2024/03/23 05:18:02;;;;;;;0.40;0.40;;;;;;;25.20;26.83;99232.50;7397607;19;20059;-53
2024/03/23 05:20:29;;;;;;;2.42;0.88;;;;;;;25.04;26.99;99231.19;7393849;19;20015;-53
2024/03/23 05:22:55;;;;;;;0.55;0.55;;;;;;;25.16;26.81;99228.56;7395110;19;20015;-53
2024/03/23 05:25:21;;;;;;;0.40;0.40;;;;;;;24.96;27.00;99224.84;7394924;19;20027;-53
2024/03/23 05:27:47;;;;;;;0.90;0.40;;;;;;;24.89;26.68;99214.31;7395935;19;20015;-53
2024/03/23 05:30:14;;;;;;;3.03;0.82;;;;;;;24.70;27.07;99214.16;7394938;19;20010;-53
2024/03/23 05:32:41;;;;;;;3.03;1.00;;;;;;;24.42;27.12;99204.06;7394724;19;20007;-53
2024/03/23 05:35:08;;;;;;;0.60;0.60;;;;;;;24.55;26.88;99203.72;7394881;19;20073;-53
2024/03/23 05:37:35;;;;;;;0.50;0.50;;;;;;;25.30;26.61;99201.91;7395201;19;20006;-53
2024/03/23 05:40:03;;;;;;;0.30;0.30;;;;;;;25.45;26.29;99196.00;7393588;19;20025;-53
2024/03/23 05:42:29;;;;;;;2.38;1.67;;;;;;;25.45;26.36;99196.00;7397769;19;20043;-52
2024/03/23 05:44:55;;;;;;;1.27;1.17;;;;;;;25.33;26.16;99200.75;7394313;19;20018;-53
2024/03/23 05:47:21;;;;;;;0.40;0.40;;;;;;;25.36;26.59;99193.84;7395076;19;20018;-52
2024/03/23 05:49:48;;;;;;;3.40;0.73;;;;;;;25.38;26.68;99194.00;7393137;19;20022;-53
2024/03/23 05:52:14;;;;;;;4.28;0.73;;;;;;;25.46;26.36;99194.66;7393771;19;20021;-52
2024/03/23 05:54:40;;;;;;;0.40;0.40;;;;;;;25.38;26.26;99198.97;7395610;19;20006;-52
2024/03/23 05:57:07;;;;;;;9.93;0.65;;;;;;;25.34;26.53;99196.53;7394129;19;20486;-52
2024/03/23 05:59:33;;;;;;;1.35;1.10;;;;;;;25.22;26.41;99195.59;7398171;19;20010;-53
2024/03/23 06:01:59;;;;;;;0.47;0.47;;;;;;;25.14;26.43;99199.91;7394212;19;20011;-52
2024/03/23 06:04:25;;;;;;;11.95;0.90;;;;;;;25.14;26.51;99189.28;7393985;19;20018;-53
2024/03/23 06:06:55;;;;;;;1.77;0.82;;;;;;;25.18;26.14;99183.88;7392497;19;20099;-53
2024/03/23 06:09:21;;;;;;;2.20;1.10;;;;;;;25.21;26.79;99188.38;7396817;19;20014;-52
2024/03/23 06:11:48;;;;;;;2.42;1.33;;;;;;;25.09;27.00;99189.53;7395137;19;20042;-53
2024/03/23 06:14:14;;;;;;;0.30;0.30;;;;;;;25.35;26.82;99180.94;7393891;19;20027;-52
2024/03/23 06:16:41;;;;;;;0.73;0.73;;;;;;;25.34;26.75;99190.84;7393863;19;20014;-52
2024/03/23 06:19:07;;;;;;;0.22;0.22;;;;;;;25.30;27.02;99184.81;7392278;19;20039;-53
2024/03/23 06:21:33;;;;;;;0.30;0.30;;;;;;;25.52;26.30;99180.13;7397876;19;20025;-52
2024/03/23 06:23:59;;;;;;;1.27;0.55;;;;;;;25.41;26.94;99172.09;7392929;19;20021;-53
2024/03/23 06:26:25;;;;;;;0.30;0.30;;;;;;;25.35;27.20;99169.53;7392754;19;20051;-52
2024/03/23 06:28:52;;;;;;;0.35;0.35;;;;;;;25.55;27.10;99156.84;7393212;19;20011;-52
2024/03/23 06:31:18;;;;;;;0.70;0.65;;;;;;;25.41;26.68;99160.69;7392932;19;20010;-52
2024/03/23 06:33:44;;;;;;;11.70;2.70;;;;;;;25.38;27.13;99159.06;7397497;19;20003;-52
2024/03/23 06:36:11;;;;;;;0.40;0.40;;;;;;;25.34;27.02;99162.31;7393629;19;20007;-52
2024/03/23 06:38:38;;;;;;;14.95;0.82;;;;;;;25.42;27.19;99168.69;7392989;19;20037;-52
2024/03/23 06:41:05;;;;;;;0.70;0.70;;;;;;;25.75;26.42;99159.78;7392859;19;20070;-52
2024/03/23 06:43:31;;;;;;;0.60;0.60;;;;;;;25.91;26.65;99160.97;7391833;19;20034;-52
2024/03/23 06:45:57;;;;;;;0.88;0.88;;;;;;;25.68;26.95;99163.50;7397227;19;20023;-52
2024/03/23 06:48:23;;;;;;;0.32;0.32;;;;;;;25.83;26.66;99163.97;7392112;19;20384;-52
2024/03/23 06:50:49;;;;;;;9.27;1.65;;;;;;;26.40;25.79;99148.25;7390635;19;20081;-52
2024/03/23 06:53:16;;;;;;;7.90;0.68;;;;;;;26.49;25.84;99138.88;7391703;19;20006;-52
2024/03/23 06:55:42;;;;;;;0.52;0.52;;;;;;;26.06;26.10;99152.13;7395187;19;20081;-52
2024/03/23 06:58:09;;;;;;;7.88;1.70;;;;;;;25.25;26.52;99154.47;7392020;19;20070;-52
2024/03/23 07:00:35;;;;;;;1.95;0.75;;;;;;;25.36;27.05;99153.94;7390889;19;20011;-53
2024/03/23 07:03:03;;;;;;;0.50;0.50;;;;;;;25.39;26.98;99147.03;7399387;19;20018;-52
2024/03/23 07:05:29;;;;;;;1.35;0.73;;;;;;;26.23;26.47;99143.44;7400739;19;20018;-52
2024/03/23 07:07:55;;;;;;;6.45;0.80;;;;;;;26.28;26.33;99142.38;7402937;19;20006;-52
2024/03/23 07:10:21;;;;;;;0.68;0.68;;;;;;;26.29;26.10;99138.19;7399466;19;20396;-52
2024/03/23 07:12:47;;;;;;;15.65;0.63;;;;;;;26.28;26.29;99139.53;7398596;19;20045;-52
2024/03/23 07:15:14;;;;;;;0.40;0.40;;;;;;;26.24;26.00;99142.09;7398990;19;20480;-52
2024/03/23 07:17:40;;;;;;;2.80;0.77;;;;;;;26.30;26.08;99148.25;7400047;19;20038;-52
2024/03/23 07:20:10;;;;;;;0.20;0.20;;;;;;;26.52;26.13;99132.75;7396771;19;20015;-53
2024/03/23 07:22:36;;;;;;;5.93;1.30;;;;;;;26.58;26.22;99136.03;7399619;19;20013;-52
2024/03/23 07:25:03;;;;;;;0.35;0.35;;;;;;;26.57;25.99;99131.69;7398986;19;20035;-52
2024/03/23 07:27:29;;;;;;;9.80;1.75;;;;;;;26.42;25.81;99128.41;7398999;19;20026;-51
2024/03/23 07:29:55;;;;;;;0.45;0.45;;;;;;;26.04;26.52;99126.28;7398028;19;20025;-51
2024/03/23 07:32:21;;;;;;;1.02;0.65;;;;;;;25.50;26.22;99129.41;7397898;19;20015;-52
2024/03/23 07:34:48;;;;;;;0.65;0.65;;;;;;;25.77;26.07;99131.38;7398499;19;20015;-51
2024/03/23 07:37:14;;;;;;;0.40;0.40;;;;;;;25.94;26.49;99132.00;7399356;19;20018;-52
2024/03/23 07:39:41;;;;;;;0.95;0.40;;;;;;;26.14;26.33;99133.53;7395929;19;20014;-51
2024/03/23 07:42:07;;;;;;;0.60;0.60;;;;;;;26.33;26.44;99121.34;7399241;19;20010;-52
2024/03/23 07:44:33;;;;;;;0.45;0.45;;;;;;;26.44;26.24;99126.44;7396894;19;20021;-52
2024/03/23 07:47:00;;;;;;;0.38;0.38;;;;;;;26.61;26.08;99128.34;7397067;19;20933;-52
2024/03/23 07:49:27;;;;;;;0.68;0.68;;;;;;;26.75;25.80;99124.44;7402951;19;20010;-53
2024/03/23 07:51:53;;;;;;;1.20;0.55;;;;;;;26.80;25.80;99123.38;7398291;19;20362;-52
2024/03/23 07:54:20;;;;;;;4.47;0.80;;;;;;;26.74;25.80;99120.09;7398606;19;20014;-53
2024/03/23 07:56:46;;;;;;;1.02;1.02;;;;;;;26.73;25.87;99117.81;7398816;19;20066;-52
2024/03/23 07:59:12;;;;;;;8.35;0.65;;;;;;;26.79;25.98;99104.72;7400966;19;20027;-53
2024/03/23 08:01:38;;;;;;;0.30;0.30;;;;;;;26.70;25.84;99107.59;7398209;19;20010;-52
2024/03/23 08:04:04;;;;;;;1.15;0.93;;;;;;;26.85;25.65;99108.03;7398497;19;20026;-53
2024/03/23 08:06:30;;;;;;;2.22;0.70;;;;;;;27.40;25.20;99106.88;7395940;19;20515;-53
2024/03/23 08:08:59;;;;;;;0.28;0.28;;;;;;;27.59;24.83;99108.88;7399065;19;20013;-52
2024/03/23 08:11:30;;;;;;;6.07;1.20;;;;;;;27.48;25.16;99106.69;7396262;19;20511;-53
2024/03/23 08:13:57;;;;;;;1.50;0.77;;;;;;;27.44;24.92;99106.41;7396731;19;20470;-52
2024/03/23 08:16:23;;;;;;;0.47;0.47;;;;;;;27.85;24.95;99107.78;7396114;19;20782;-52
2024/03/23 08:18:53;;;;;;;6.60;0.55;;;;;;;28.14;25.03;99114.03;7401241;19;20018;-52
2024/03/23 08:21:19;;;;;;;1.98;0.60;;;;;;;27.56;25.30;99121.53;7397586;19;20032;-52
2024/03/23 08:23:45;;;;;;;0.30;0.30;;;;;;;27.40;25.35;99115.44;7397536;19;20017;-52
2024/03/23 08:26:13;;;;;;;0.43;0.43;;;;;;;27.35;25.11;99110.03;7396736;19;20039;-52
2024/03/23 08:28:39;;;;;;;0.98;0.25;;;;;;;27.33;25.42;99099.19;7399175;19;20034;-52
2024/03/23 08:31:07;;;;;;;0.75;0.75;;;;;;;27.64;24.77;99104.91;7396542;19;20345;-52
2024/03/23 08:33:34;;;;;;;0.30;0.30;;;;;;;28.17;24.90;99109.94;7396998;19;20021;-52
2024/03/23 08:36:07;;;;;;;0.30;0.30;;;;;;;28.10;24.67;99092.97;7396584;19;20060;-53
2024/03/23 08:38:34;;;;;;;5.05;0.68;;;;;;;28.04;24.82;99101.91;7398763;19;20070;-52
2024/03/23 08:41:07;;;;;;;0.28;0.28;;;;;;;28.16;24.69;99093.34;7393456;19;20019;-53
2024/03/23 08:43:41;;;;;;;5.07;0.80;;;;;;;28.28;24.26;99106.38;7396313;19;20458;-53
2024/03/23 08:46:09;;;;;;;0.68;0.68;;;;;;;28.49;24.60;99100.56;7396405;19;20423;-53
2024/03/23 08:48:40;;;;;;;0.75;0.75;;;;;;;28.83;24.24;99081.22;7398743;19;20022;-52
2024/03/23 08:51:08;;;;;;;0.30;0.30;;;;;;;28.77;24.38;99090.19;7397094;19;20010;-51
2024/03/23 08:53:35;;;;;;;1.00;0.65;;;;;;;28.52;24.18;99090.00;7396410;19;20027;-53
2024/03/23 08:56:02;;;;;;;1.50;0.95;;;;;;;28.32;24.59;99089.44;7399934;19;20034;-52
2024/03/23 08:58:30;;;;;;;0.40;0.40;;;;;;;28.52;24.37;99093.59;7393301;19;20014;-53
2024/03/23 09:01:02;;;;;;;0.55;0.32;;;;;;;28.57;24.73;99091.75;7391489;19;20362;-53
2024/03/23 09:03:29;;;;;;;1.05;0.75;;;;;;;28.88;24.74;99094.44;7394249;19;20021;-53
2024/03/23 09:05:55;;;;;;;0.98;0.82;;;;;;;28.86;24.32;99102.91;7392336;19;20007;-53
2024/03/23 09:08:21;;;;;;;3.42;1.08;;;;;;;28.58;24.83;99093.28;7392234;19;20014;-53
2024/03/23 09:10:48;;;;;;;3.38;0.90;;;;;;;28.90;24.59;99092.44;7394342;19;20410;-53
2024/03/23 09:13:16;;;;;;;3.63;1.48;;;;;;;29.04;24.39;99081.84;7394363;19;20014;-53
2024/03/23 09:15:57;;;;;;;11.00;2.92;;;;;;;29.75;23.66;99086.91;7390459;19;20464;-52
2024/03/23 09:18:23;;;;;;;2.15;1.90;;;;;;;29.21;23.66;99089.34;7391201;19;20018;-52
2024/03/23 09:20:49;;;;;;;1.08;1.05;;;;;;;29.08;24.05;99090.72;7395543;19;20014;-53
2024/03/23 09:23:16;;;;;;;2.53;1.10;;;;;;;29.11;24.18;99088.69;7394799;19;20014;-52
2024/03/23 09:25:42;;;;;;;5.25;1.42;;;;;;;28.99;23.40;99082.97;7391938;19;20014;-52
2024/03/23 09:28:08;;;;;;;3.47;1.30;;;;;;;29.01;23.82;99079.47;7392743;19;20500;-53
2024/03/23 09:30:35;;;;;;;10.65;2.40;;;;;;;29.20;23.44;99080.00;7394181;19;20042;-53
2024/03/23 09:33:02;;;;;;;4.57;1.05;;;;;;;29.34;23.64;99077.25;7392812;19;20090;-52
2024/03/23 09:35:29;;;;;;;4.10;1.08;;;;;;;29.16;23.56;99079.00;7393963;19;20457;-53
2024/03/23 09:37:55;;;;;;;1.25;1.00;;;;;;;29.12;24.01;99076.63;7393290;19;20096;-52
2024/03/23 09:40:21;;;;;;;10.80;1.30;;;;;;;29.08;24.28;99079.25;7394816;19;20468;-52
2024/03/23 09:42:51;;;;;;;0.77;0.77;;;;;;;28.47;24.85;99077.53;7399520;19;20029;-53
2024/03/23 09:45:27;;;;;;;3.83;1.35;;;;;;;28.30;24.98;99080.72;7395260;19;20082;-52
2024/03/23 09:47:55;;;;;;;0.75;0.50;;;;;;;27.98;25.27;99087.19;7395636;19;20011;-53
2024/03/23 09:50:22;;;;;;;2.38;0.82;;;;;;;27.75;25.23;99087.81;7397153;19;20092;-53
2024/03/23 09:52:48;;;;;;;2.70;0.75;;;;;;;27.69;25.31;99089.50;7393593;19;20018;-52
2024/03/23 09:55:15;;;;;;;0.32;0.32;;;;;;;27.59;25.02;99074.53;7395818;19;20015;-52
2024/03/23 09:57:41;;;;;;;0.47;0.47;;;;;;;27.71;25.55;99076.09;7393964;19;20014;-52
2024/03/23 10:00:09;;;;;;;2.17;1.45;;;;;;;28.91;24.72;99047.31;7393887;19;20070;-53
2024/03/23 10:02:35;;;;;;;4.38;1.55;;;;;;;29.83;24.25;99067.28;7393481;19;20078;-52
2024/03/23 10:05:02;;;;;;;4.82;1.73;;;;;;;29.19;24.38;99049.09;7394513;19;20370;-52
2024/03/23 10:07:28;;;;;;;6.63;1.75;;;;;;;29.29;24.69;99054.66;7393730;19;20183;-52
2024/03/23 10:09:55;;;;;;;0.43;0.43;;;;;;;29.57;24.60;99048.50;7393764;19;20070;-52
2024/03/23 10:12:23;;;;;;;6.22;0.55;;;;;;;29.76;24.54;99056.81;7395543;19;20010;-53
2024/03/23 10:14:49;;;;;;;1.75;0.80;;;;;;;29.76;24.29;99048.22;7392877;19;20373;-52
2024/03/23 10:17:18;;;;;;;3.03;1.58;;;;;;;30.32;24.50;99042.09;7394221;19;20015;-52
2024/03/23 10:19:49;;;;;;;3.83;1.52;;;;;;;30.58;24.11;99037.06;7392346;19;20070;-53
2024/03/23 10:22:27;;;;;;;0.47;0.47;;;;;;;31.24;23.74;99039.91;7394478;19;20011;-52
2024/03/23 10:24:53;;;;;;;0.25;0.20;;;;;;;30.96;23.46;99026.91;7393223;19;20036;-53
2024/03/23 10:27:21;;;;;;;0.32;0.32;;;;;;;30.98;23.13;99016.25;7393556;19;20015;-52
2024/03/23 10:29:49;;;;;;;0.20;0.20;;;;;;;31.45;22.85;99047.50;7393061;19;20023;-53
2024/03/23 10:32:17;;;;;;;0.30;0.15;;;;;;;31.01;22.41;99032.25;7393739;19;20034;-52
2024/03/23 10:34:44;;;;;;;0.30;0.30;;;;;;;31.15;22.81;99029.34;7395439;19;20014;-52
2024/03/23 10:37:10;;;;;;;0.43;0.43;;;;;;;31.36;22.87;99029.75;7400486;19;20014;-52
2024/03/23 10:39:40;;;;;;;0.20;0.10;;;;;;;31.02;22.72;99070.38;7398114;19;20019;-52
2024/03/23 10:42:10;;;;;;;3.63;0.50;;;;;;;29.87;24.00;99058.91;7403354;19;20367;-52
2024/03/23 10:44:38;;;;;;;2.47;0.10;;;;;;;29.29;24.38;99057.53;7400283;19;20043;-52
2024/03/23 10:47:05;;;;;;;0.63;0.63;;;;;;;29.32;24.54;99059.91;7404706;19;20027;-52
2024/03/23 10:49:35;;;;;;;0.40;0.15;;;;;;;29.76;24.69;99050.31;7400607;19;20013;-52
2024/03/23 10:52:05;;;;;;;1.15;0.60;;;;;;;29.57;24.52;99048.50;7399601;19;20014;-53
2024/03/23 10:54:33;;;;;;;0.73;0.45;;;;;;;30.19;24.64;99059.28;7401870;19;20007;-52
2024/03/23 10:57:15;;;;;;;0.10;0.10;;;;;;;30.04;24.53;99037.59;7404311;19;20032;-51
2024/03/23 10:59:41;;;;;;;0.52;0.40;;;;;;;30.24;24.58;99043.75;7397377;19;20047;-52
2024/03/23 11:02:19;;;;;;;0.20;0.20;;;;;;;30.45;24.47;99037.78;7400288;19;20018;-52
2024/03/23 11:04:48;;;;;;;0.10;0.10;;;;;;;30.33;24.36;99028.47;7400520;19;20037;-52
2024/03/23 11:07:26;;;;;;;6.22;0.47;;;;;;;30.21;24.20;99031.41;7402051;19;20088;-53
2024/03/23 11:09:56;;;;;;;0.28;0.28;;;;;;;30.24;24.11;99026.50;7399653;19;20030;-50
2024/03/23 11:12:22;;;;;;;0.65;0.63;;;;;;;30.64;24.06;99018.03;7401917;19;20018;-52
2024/03/23 11:14:51;;;;;;;2.75;0.80;;;;;;;29.99;24.42;99053.84;7397357;19;20014;-52
2024/03/23 11:17:21;;;;;;;0.13;0.13;;;;;;;29.23;24.36;99066.53;7396877;19;20342;-52
2024/03/23 11:19:54;;;;;;;6.40;0.73;;;;;;;28.78;24.62;99048.69;7401802;19;20019;-52
2024/03/23 11:22:47;;;;;;;0.22;0.22;;;;;;;28.54;24.93;99056.47;7399907;19;20010;-52
2024/03/23 11:25:23;;;;;;;1.90;0.63;;;;;;;28.92;24.59;99038.09;7398610;19;20002;-51
2024/03/23 11:27:51;;;;;;;1.83;1.02;;;;;;;29.14;24.92;99024.34;7398425;19;20006;-51
2024/03/23 11:30:18;;;;;;;1.77;1.67;;;;;;;29.37;24.62;99027.22;7398761;19;20362;-51
2024/03/23 11:32:46;;;;;;;1.35;0.70;;;;;;;29.62;24.77;99027.28;7397715;19;20378;-51